Time;durP1;ratioP1;P1;durP2;ratioP2;P2;SDS_P1;SDS_P2;PMS_P1;PMS_P2;Temp;Humidity;BMP_temperature;BMP_pressure;BME280_temperature;BME280_humidity;BME280_pressure;Samples;Min_cycle;Max_cycle;Signal;HPM_P1;HPM_P2
2022/05/24 00:01:49;;;;;;;1.65;1.23;;;;;;;16.33;64.00;97986.06;5114425;28;20035;-63
2022/05/24 00:04:33;;;;;;;2.35;1.30;;;;;;;16.34;67.41;97981.59;5113246;28;20431;-63
2022/05/24 00:07:18;;;;;;;1.05;0.95;;;;;;;16.51;64.35;97990.41;5114224;28;20047;-63
2022/05/24 00:10:06;;;;;;;2.20;0.82;;;;;;;16.93;61.68;97999.19;5114154;28;20043;-62
2022/05/24 00:12:52;;;;;;;1.13;0.88;;;;;;;17.15;60.47;97999.56;5114553;28;20043;-63
2022/05/24 00:15:36;;;;;;;2.75;1.40;;;;;;;17.23;60.74;97990.78;5113014;28;20036;-63
2022/05/24 00:18:27;;;;;;;3.05;1.17;;;;;;;16.61;62.46;97977.84;5114091;28;20070;-64
2022/05/24 00:21:12;;;;;;;1.10;0.80;;;;;;;16.74;62.28;97965.97;5113487;28;20047;-62
2022/05/24 00:23:57;;;;;;;2.60;1.17;;;;;;;16.82;60.64;97973.06;5113370;28;20040;-63
2022/05/24 00:26:41;;;;;;;4.28;1.30;;;;;;;16.80;60.38;97969.75;5112294;28;20043;-63
2022/05/24 00:29:27;;;;;;;1.90;0.93;;;;;;;16.90;60.51;97957.22;5098118;28;20156;-62
2022/05/24 00:32:12;;;;;;;1.80;0.98;;;;;;;17.08;59.42;97943.84;5113863;28;20046;-62
2022/05/24 00:34:57;;;;;;;2.45;1.05;;;;;;;16.97;61.69;97934.38;5112367;28;20391;-61
2022/05/24 00:37:43;;;;;;;4.35;1.30;;;;;;;16.27;65.36;97933.88;5114123;28;20043;-64
2022/05/24 00:41:01;;;;;;;5.97;1.67;;;;;;;16.31;65.79;97921.97;5114556;28;20130;-65
2022/05/24 00:44:03;;;;;;;6.57;1.50;;;;;;;16.21;65.85;97924.78;5113183;28;20047;-63
2022/05/24 00:46:54;;;;;;;4.80;1.42;;;;;;;15.98;66.75;97906.03;5112945;28;20031;-64
2022/05/24 00:49:46;;;;;;;4.13;1.40;;;;;;;16.06;65.03;97902.63;5116367;28;20436;-64
2022/05/24 00:53:03;;;;;;;3.58;1.50;;;;;;;16.23;64.68;97896.38;5121038;28;20401;-63
2022/05/24 00:56:06;;;;;;;2.30;1.75;;;;;;;16.31;65.35;97895.56;5122201;28;20063;-63
2022/05/24 00:58:55;;;;;;;4.82;1.67;;;;;;;16.41;65.68;97889.28;5117752;28;20035;-63
2022/05/24 01:01:41;;;;;;;2.00;1.15;;;;;;;16.24;67.05;97881.31;5114183;28;20059;-63
2022/05/24 01:04:27;;;;;;;5.93;1.88;;;;;;;15.94;67.38;97881.75;5113362;28;20069;-63
2022/05/24 01:07:11;;;;;;;4.15;1.63;;;;;;;16.16;67.04;97876.06;5116945;28;20050;-64
2022/05/24 01:10:01;;;;;;;4.53;2.10;;;;;;;16.21;66.79;97881.66;5114722;28;20036;-64
2022/05/24 01:12:51;;;;;;;3.35;1.50;;;;;;;16.19;65.87;97876.53;5112134;28;20067;-63
2022/05/24 01:15:36;;;;;;;3.90;1.50;;;;;;;16.28;65.07;97882.66;5096834;28;20051;-64
2022/05/24 01:18:24;;;;;;;1.58;1.10;;;;;;;16.36;65.43;97887.97;5112818;28;20122;-64
2022/05/24 01:21:14;;;;;;;1.70;1.10;;;;;;;16.60;65.19;97882.81;5111136;28;20031;-63
2022/05/24 01:24:16;;;;;;;1.80;1.10;;;;;;;16.96;63.86;97885.13;5097173;28;20055;-63
2022/05/24 01:27:02;;;;;;;2.40;1.33;;;;;;;17.09;64.03;97879.34;5110823;28;20036;-63
2022/05/24 01:29:47;;;;;;;2.60;1.65;;;;;;;17.20;63.53;97885.28;5110740;28;20040;-64
2022/05/24 01:39:00;;;;;;;2.60;1.10;;;;;;;17.18;64.30;97905.78;5111886;28;20045;-63
2022/05/24 01:41:51;;;;;;;7.55;2.20;;;;;;;17.20;64.48;97903.78;5112208;28;20032;-64
2022/05/24 01:44:58;;;;;;;1.70;1.10;;;;;;;16.99;64.79;97905.09;5111610;28;20061;-63
2022/05/24 01:47:47;;;;;;;7.53;3.15;;;;;;;16.94;64.77;97907.44;5111609;28;20063;-64
2022/05/24 01:50:35;;;;;;;3.15;1.42;;;;;;;16.82;64.38;97905.16;5111454;28;20059;-64
2022/05/24 01:53:27;;;;;;;3.30;1.70;;;;;;;16.92;63.93;97912.06;5111684;28;20032;-64
2022/05/24 01:56:17;;;;;;;2.78;1.00;;;;;;;16.67;64.84;97914.72;5111701;28;20097;-63
2022/05/24 01:59:04;;;;;;;3.20;1.75;;;;;;;16.91;64.03;97907.78;5111571;28;20058;-64
2022/05/24 02:01:57;;;;;;;2.10;1.52;;;;;;;16.57;65.58;97899.03;5110433;28;20074;-64
2022/05/24 02:04:42;;;;;;;4.13;1.73;;;;;;;16.30;67.20;97903.66;5110344;28;20035;-64
2022/05/24 02:07:27;;;;;;;3.67;2.03;;;;;;;16.19;68.21;97899.50;5111264;28;20040;-62
2022/05/24 02:10:12;;;;;;;2.10;1.48;;;;;;;16.32;68.15;97891.91;5110198;28;20486;-63
2022/05/24 02:13:02;;;;;;;2.38;1.38;;;;;;;16.48;67.70;97893.72;5115629;28;20382;-64
2022/05/24 02:15:49;;;;;;;4.10;1.80;;;;;;;16.24;69.35;97900.66;5101506;28;20417;-64
2022/05/24 02:18:39;;;;;;;4.03;1.60;;;;;;;16.27;68.60;97899.53;5095404;28;20047;-64
2022/05/24 02:21:24;;;;;;;3.83;1.80;;;;;;;16.05;71.44;97907.06;5094893;28;20036;-62
2022/05/24 02:24:19;;;;;;;1.85;1.50;;;;;;;16.39;68.67;97907.94;5094913;28;20036;-63
2022/05/24 02:27:04;;;;;;;3.47;2.05;;;;;;;16.31;70.79;97902.66;5113677;28;20107;-64
2022/05/24 02:29:49;;;;;;;4.50;1.23;;;;;;;16.33;70.10;97904.16;5114193;28;20047;-63
2022/05/24 02:32:34;;;;;;;5.50;3.15;;;;;;;16.17;71.98;97904.13;5114197;28;20451;-65
2022/05/24 02:35:21;;;;;;;5.82;2.50;;;;;;;15.58;75.24;97911.00;5114066;28;20069;-64
2022/05/24 02:38:05;;;;;;;5.88;3.03;;;;;;;15.29;77.33;97909.56;5115219;28;20057;-63
2022/05/24 02:44:00;;;;;;;3.58;1.85;;;;;;;15.69;74.63;97910.72;5114074;28;20442;-62
2022/05/24 02:46:47;;;;;;;1.77;1.20;;;;;;;16.09;71.93;97913.66;5106979;28;20095;-64
2022/05/24 02:49:32;;;;;;;2.25;1.60;;;;;;;16.36;70.34;97905.63;5108105;28;20043;-63
2022/05/24 02:52:16;;;;;;;2.33;1.52;;;;;;;16.06;71.57;97903.44;5115696;28;20505;-63
2022/05/24 02:55:01;;;;;;;6.15;2.25;;;;;;;15.92;71.48;97896.94;5114074;28;20470;-64
2022/05/24 02:57:47;;;;;;;3.75;2.00;;;;;;;16.32;69.14;97891.09;5115658;28;20462;-62
2022/05/24 03:00:32;;;;;;;2.35;1.30;;;;;;;16.50;68.29;97888.28;5110633;27;20051;-62
2022/05/24 03:03:17;;;;;;;5.20;2.30;;;;;;;16.31;69.04;97884.97;5106952;28;20031;-64
2022/05/24 03:06:02;;;;;;;1.98;1.40;;;;;;;15.39;73.27;97879.41;5105782;28;20066;-64
2022/05/24 03:14:55;;;;;;;3.63;2.20;;;;;;;15.69;71.40;97899.31;5107173;28;20047;-64
2022/05/24 03:17:40;;;;;;;3.22;1.70;;;;;;;15.71;71.95;97900.00;5100542;28;20390;-64
2022/05/24 03:20:26;;;;;;;6.47;3.00;;;;;;;15.15;72.99;97907.34;5097307;28;20035;-64
2022/05/24 03:23:11;;;;;;;7.72;2.30;;;;;;;14.91;74.48;97913.28;5107385;27;20035;-64
2022/05/24 03:25:56;;;;;;;4.28;2.35;;;;;;;14.41;76.46;97923.41;5113761;28;20394;-64
2022/05/24 03:28:42;;;;;;;4.57;1.85;;;;;;;14.98;75.30;97924.03;5115479;28;20540;-64
2022/05/24 03:31:28;;;;;;;2.80;1.63;;;;;;;15.63;72.98;97928.00;5115360;28;20044;-64
2022/05/24 03:34:13;;;;;;;6.68;1.60;;;;;;;15.79;71.96;97928.25;5099637;28;20047;-64
2022/05/24 03:36:58;;;;;;;2.28;1.33;;;;;;;15.85;70.79;97938.16;5115509;28;20027;-64
2022/05/24 03:39:43;;;;;;;4.10;2.33;;;;;;;15.60;71.19;97938.88;5114365;28;20043;-64
2022/05/24 03:42:28;;;;;;;3.20;1.77;;;;;;;15.69;71.57;97941.56;5113770;28;20046;-64
2022/05/24 03:45:14;;;;;;;5.03;2.22;;;;;;;15.34;72.20;97942.38;5115067;28;20040;-64
2022/05/24 03:47:58;;;;;;;3.55;1.52;;;;;;;15.60;72.36;97946.00;5113630;28;20405;-65
2022/05/24 03:50:43;;;;;;;3.53;1.95;;;;;;;15.23;72.66;97946.13;5114199;28;20055;-65
2022/05/24 03:53:28;;;;;;;3.42;1.08;;;;;;;15.59;72.46;97947.81;5114883;28;20100;-64
2022/05/24 03:56:14;;;;;;;4.55;2.30;;;;;;;15.86;70.83;97943.28;5114184;28;20592;-64
2022/05/24 03:58:58;;;;;;;4.43;2.20;;;;;;;15.88;70.95;97949.25;5114839;28;20035;-64
2022/05/24 04:01:43;;;;;;;5.63;2.00;;;;;;;15.56;71.54;97948.13;5115148;28;20090;-63
2022/05/24 04:04:29;;;;;;;4.15;1.88;;;;;;;15.77;71.35;97945.09;5114976;28;20046;-65
2022/05/24 04:07:14;;;;;;;3.58;2.10;;;;;;;15.87;70.07;97944.97;5114361;28;20184;-62
2022/05/24 04:10:02;;;;;;;3.88;2.08;;;;;;;14.93;73.72;97944.78;5113799;28;20031;-64
2022/05/24 04:12:47;;;;;;;4.03;2.47;;;;;;;14.77;75.13;97952.34;5113695;28;20043;-63
2022/05/24 04:15:32;;;;;;;4.50;2.63;;;;;;;15.00;73.82;97956.34;5114164;28;20068;-62
2022/05/24 04:18:16;;;;;;;3.70;2.20;;;;;;;14.63;75.54;97971.34;5113889;28;20387;-62
2022/05/24 04:21:01;;;;;;;2.33;1.90;;;;;;;14.51;76.63;97974.22;5113843;28;20429;-64
2022/05/24 04:23:46;;;;;;;3.95;2.05;;;;;;;14.60;76.31;97969.84;5108804;27;20044;-62
2022/05/24 04:26:31;;;;;;;2.47;1.35;;;;;;;14.76;77.01;97977.06;5078506;28;20071;-62
2022/05/24 04:29:15;;;;;;;7.15;2.60;;;;;;;14.67;76.30;97972.72;5093080;28;20077;-62
2022/05/24 04:32:01;;;;;;;5.25;2.70;;;;;;;14.44;77.63;97970.53;5092969;28;20097;-66
2022/05/24 04:34:46;;;;;;;3.78;2.03;;;;;;;14.16;79.38;97966.13;5102511;28;20032;-63
2022/05/24 04:37:31;;;;;;;4.15;1.90;;;;;;;14.30;79.17;97958.69;5112644;28;20047;-63
2022/05/24 04:40:16;;;;;;;5.13;2.15;;;;;;;14.28;79.67;97963.28;5113418;28;20071;-66
2022/05/24 04:43:01;;;;;;;4.75;2.03;;;;;;;14.26;80.42;97978.41;5113052;28;20038;-65
2022/05/24 04:45:47;;;;;;;2.50;1.70;;;;;;;14.64;79.41;97975.63;5112836;28;20533;-65
2022/05/24 04:48:32;;;;;;;3.60;2.55;;;;;;;14.74;78.79;97976.38;5111930;28;20928;-63
2022/05/24 04:51:17;;;;;;;5.72;2.55;;;;;;;14.49;79.76;97983.25;5113710;28;20044;-61
2022/05/24 04:54:02;;;;;;;2.80;2.13;;;;;;;15.90;73.89;97993.97;5112001;28;20289;-56
2022/05/24 04:56:47;;;;;;;4.20;2.38;;;;;;;15.60;73.36;97996.97;5091656;28;20036;-62
2022/05/24 04:59:34;;;;;;;4.82;2.63;;;;;;;14.95;76.19;98003.47;5091968;28;20044;-64
2022/05/24 05:02:20;;;;;;;4.28;2.30;;;;;;;15.54;74.18;98002.88;5093186;28;20036;-62
2022/05/24 05:05:06;;;;;;;6.88;2.70;;;;;;;15.22;74.61;98012.22;5100744;28;20039;-65
2022/05/24 05:07:51;;;;;;;5.65;2.40;;;;;;;15.15;75.43;98015.50;5113685;28;20081;-65
2022/05/24 05:10:37;;;;;;;4.47;2.30;;;;;;;14.98;75.51;98021.63;5098792;28;20078;-63
2022/05/24 05:13:22;;;;;;;23.15;2.75;;;;;;;14.89;76.40;98018.91;5092046;28;20047;-66
2022/05/24 05:16:07;;;;;;;8.27;2.10;;;;;;;14.64;76.51;98020.44;5077449;28;20032;-66
2022/05/24 05:18:52;;;;;;;3.33;2.38;;;;;;;14.59;76.85;98018.25;5092829;28;20119;-65
2022/05/24 05:21:39;;;;;;;4.97;2.20;;;;;;;14.47;77.50;98019.47;5092471;28;20032;-65
2022/05/24 05:24:24;;;;;;;6.35;2.60;;;;;;;14.37;77.72;98016.88;5103667;28;20059;-63
2022/05/24 05:27:09;;;;;;;4.22;2.20;;;;;;;14.65;77.17;98022.94;5100670;28;20036;-65
2022/05/24 05:32:57;;;;;;;4.18;2.40;;;;;;;14.27;78.24;98030.09;5125775;27;20055;-64
2022/05/24 05:35:45;;;;;;;3.50;2.42;;;;;;;14.40;78.13;98027.13;5092370;28;20043;-66
2022/05/24 05:38:31;;;;;;;5.35;2.58;;;;;;;14.08;79.90;98031.03;5123734;27;20073;-62
2022/05/24 05:41:25;;;;;;;3.30;2.70;;;;;;;14.11;81.42;98038.66;5083827;28;20093;-63
2022/05/24 05:44:10;;;;;;;4.07;2.80;;;;;;;13.97;82.25;98040.78;5091680;28;20036;-61
2022/05/24 05:46:56;;;;;;;5.80;2.38;;;;;;;14.09;82.38;98036.16;5097708;28;20097;-64
2022/05/24 05:49:41;;;;;;;5.40;2.95;;;;;;;14.01;82.94;98039.53;5094124;28;20051;-62
2022/05/24 05:52:26;;;;;;;4.88;2.42;;;;;;;14.22;82.09;98048.16;5096226;28;20035;-61
2022/05/24 05:55:12;;;;;;;4.78;2.90;;;;;;;14.44;80.93;98049.56;5104726;28;20047;-61
2022/05/24 05:57:56;;;;;;;6.68;2.80;;;;;;;14.08;83.05;98060.84;5111658;28;20035;-60
2022/05/24 06:00:42;;;;;;;7.85;2.80;;;;;;;14.11;83.28;98064.97;5094284;28;20048;-65
2022/05/24 06:03:27;;;;;;;4.65;3.22;;;;;;;14.36;82.59;98058.19;5092247;28;20063;-62
2022/05/24 06:06:17;;;;;;;3.67;2.90;;;;;;;14.16;83.72;98063.59;5105691;28;20075;-61
2022/05/24 06:09:02;;;;;;;4.43;3.10;;;;;;;14.23;83.77;98068.28;5097485;28;20044;-61
2022/05/24 06:11:47;;;;;;;5.10;3.33;;;;;;;14.32;83.37;98075.28;5105703;28;20411;-61
2022/05/24 06:14:32;;;;;;;6.40;3.33;;;;;;;14.62;81.80;98075.13;5092478;28;20058;-62
2022/05/24 06:17:18;;;;;;;4.07;2.65;;;;;;;14.57;82.42;98087.91;5092265;28;20047;-50
2022/05/24 06:20:04;;;;;;;5.65;2.75;;;;;;;15.62;76.86;98083.91;5077024;28;20384;-64
2022/05/24 06:22:57;;;;;;;3.97;2.67;;;;;;;14.68;80.41;98082.44;5120161;28;20363;-65
2022/05/24 06:25:43;;;;;;;4.55;2.75;;;;;;;14.63;81.16;98085.53;5117389;28;20052;-65
2022/05/24 06:28:28;;;;;;;6.07;2.80;;;;;;;14.89;79.79;98081.34;5120092;28;20039;-66
2022/05/24 06:31:14;;;;;;;3.08;2.45;;;;;;;14.90;80.61;98083.03;5092134;28;20051;-66
2022/05/24 06:33:58;;;;;;;6.70;2.85;;;;;;;14.71;80.81;98083.94;5093889;28;20039;-64
2022/05/24 06:36:43;;;;;;;6.25;3.22;;;;;;;14.80;80.84;98080.47;5111893;28;20386;-64
2022/05/24 06:39:29;;;;;;;4.05;2.72;;;;;;;14.73;81.72;98079.34;5112437;28;20051;-67
2022/05/24 06:42:15;;;;;;;7.32;2.90;;;;;;;14.54;83.19;98084.59;5112576;28;20089;-67
2022/05/24 06:45:03;;;;;;;4.38;2.72;;;;;;;14.56;83.87;98089.72;5097976;28;20040;-67
2022/05/24 06:47:48;;;;;;;5.13;3.25;;;;;;;14.92;82.06;98088.97;5111556;28;20085;-65
2022/05/24 06:50:35;;;;;;;5.13;2.88;;;;;;;15.06;81.53;98098.19;5111538;28;20036;-65
2022/05/24 06:53:20;;;;;;;4.95;3.45;;;;;;;15.10;81.68;98098.69;5111434;28;20031;-65
2022/05/24 06:56:06;;;;;;;4.35;2.60;;;;;;;15.10;81.79;98110.06;5111462;28;20054;-67
2022/05/24 07:02:24;;;;;;;6.63;3.38;;;;;;;15.55;79.85;98109.28;5115543;28;20071;-67
2022/05/24 07:05:08;;;;;;;4.65;3.08;;;;;;;15.69;79.26;98108.72;5103204;28;20048;-65
2022/05/24 07:07:53;;;;;;;6.30;3.55;;;;;;;15.90;78.38;98107.53;5115141;28;20339;-66
2022/05/24 07:10:40;;;;;;;6.88;3.42;;;;;;;16.02;78.24;98105.50;5116206;28;20036;-67
2022/05/24 07:13:25;;;;;;;6.68;4.15;;;;;;;15.85;79.26;98108.00;5115920;28;20043;-67
2022/05/24 07:16:10;;;;;;;4.78;3.88;;;;;;;16.00;78.40;98108.31;5115942;28;20390;-66
2022/05/24 07:18:56;;;;;;;5.88;3.28;;;;;;;15.95;77.21;98109.72;5115991;28;20044;-66
2022/05/24 07:21:41;;;;;;;3.75;2.95;;;;;;;16.13;77.11;98091.19;5115043;28;20040;-65
2022/05/24 07:24:27;;;;;;;3.83;2.70;;;;;;;16.48;74.21;98099.09;5115590;28;20035;-67
2022/05/24 07:27:13;;;;;;;6.00;2.78;;;;;;;16.75;72.72;98086.63;5116823;28;20077;-67
2022/05/24 07:29:59;;;;;;;4.93;3.30;;;;;;;16.99;71.99;98080.53;5117764;28;20067;-66
2022/05/24 07:32:45;;;;;;;6.20;2.83;;;;;;;16.97;71.50;98087.00;5118159;28;20040;-65
2022/05/24 07:35:30;;;;;;;3.88;2.10;;;;;;;17.54;68.84;98093.34;5118203;28;20383;-65
2022/05/24 07:38:15;;;;;;;4.88;2.65;;;;;;;17.63;68.79;98075.59;5117199;28;20048;-65
2022/05/24 07:47:12;;;;;;;4.68;2.67;;;;;;;18.19;65.22;98061.59;5101944;28;20044;-64
2022/05/24 07:49:58;;;;;;;5.80;2.92;;;;;;;18.34;65.35;98068.81;5115892;28;20051;-67
2022/05/24 07:52:43;;;;;;;5.07;2.60;;;;;;;18.34;65.29;98079.41;5115356;28;20035;-66
2022/05/24 07:55:27;;;;;;;3.65;2.50;;;;;;;18.12;66.01;98073.84;5114006;28;20479;-69
2022/05/24 07:58:14;;;;;;;6.00;3.25;;;;;;;17.66;67.79;98067.31;5113745;28;20040;-65
2022/05/24 08:00:59;;;;;;;3.75;2.95;;;;;;;17.55;68.25;98068.50;5114802;28;20050;-66
2022/05/24 08:03:45;;;;;;;4.82;2.78;;;;;;;18.25;66.07;98075.16;5113563;28;20523;-66
2022/05/24 08:06:29;;;;;;;3.88;2.53;;;;;;;18.08;66.39;98080.47;5113498;28;20036;-66
2022/05/24 08:09:14;;;;;;;6.00;3.00;;;;;;;18.11;66.34;98082.78;5099107;28;20039;-66
2022/05/24 08:11:59;;;;;;;4.22;2.78;;;;;;;18.55;65.55;98084.13;5113444;28;20214;-67
2022/05/24 08:14:44;;;;;;;7.13;3.42;;;;;;;18.89;63.23;98082.09;5113494;28;20478;-67
2022/05/24 08:17:29;;;;;;;4.22;2.95;;;;;;;19.33;61.55;98082.47;5113329;28;20043;-65
2022/05/24 08:20:14;;;;;;;4.93;2.88;;;;;;;19.34;61.55;98089.44;5113420;28;20054;-65
2022/05/24 08:22:59;;;;;;;10.23;3.03;;;;;;;19.89;60.16;98076.00;5113540;28;20088;-65
2022/05/24 08:25:45;;;;;;;4.30;2.63;;;;;;;19.05;62.56;98075.03;5114633;28;20054;-65
2022/05/24 08:28:29;;;;;;;5.32;2.65;;;;;;;18.67;64.78;98087.19;5113019;28;20074;-65
2022/05/24 08:31:16;;;;;;;6.85;2.65;;;;;;;18.38;65.81;98078.06;5113373;28;20039;-65
2022/05/24 08:34:00;;;;;;;5.07;2.90;;;;;;;18.21;66.49;98085.28;5113245;28;20085;-66
2022/05/24 08:36:46;;;;;;;5.60;3.00;;;;;;;18.13;67.21;98098.53;5113959;28;20050;-67
2022/05/24 08:39:31;;;;;;;3.75;2.60;;;;;;;18.65;65.60;98102.47;5113613;28;20043;-66
2022/05/24 08:42:25;;;;;;;5.38;3.03;;;;;;;19.58;61.97;98104.31;5113751;28;20041;-66
2022/05/24 08:48:48;;;;;;;3.95;2.47;;;;;;;20.01;61.07;98113.53;5093655;28;20036;-66
2022/05/24 08:51:43;;;;;;;4.05;2.85;;;;;;;19.87;60.99;98123.16;5093027;28;20445;-66
2022/05/24 08:54:45;;;;;;;6.60;2.95;;;;;;;20.65;59.04;98121.16;5123243;27;20092;-65
2022/05/24 08:57:56;;;;;;;8.30;3.05;;;;;;;19.91;59.95;98110.34;5091809;28;20403;-67
2022/05/24 09:00:49;;;;;;;4.95;2.95;;;;;;;19.99;59.82;98106.78;5093090;28;20044;-63
2022/05/24 09:03:33;;;;;;;4.70;3.35;;;;;;;20.22;59.58;98098.72;5093448;28;20036;-66
2022/05/24 09:06:34;;;;;;;5.18;2.97;;;;;;;20.25;59.62;98094.88;5092816;28;20036;-64
2022/05/24 09:09:49;;;;;;;5.35;3.38;;;;;;;19.81;60.71;98092.00;5092296;28;20036;-65
2022/05/24 09:12:49;;;;;;;6.18;3.30;;;;;;;20.60;58.47;98094.28;5091914;28;20040;-64
2022/05/24 09:15:48;;;;;;;4.72;3.05;;;;;;;20.88;57.76;98098.88;5093362;28;20431;-64
2022/05/24 09:18:37;;;;;;;6.25;3.00;;;;;;;20.33;58.98;98109.91;5093356;28;20513;-66
2022/05/24 09:21:29;;;;;;;7.50;2.92;;;;;;;20.34;59.09;98101.75;5120753;27;20044;-67
2022/05/24 09:24:41;;;;;;;4.82;2.60;;;;;;;21.76;54.99;98107.66;5078486;28;20044;-65
2022/05/24 09:27:28;;;;;;;;;;;;;;;21.63;55.20;98105.72;5093893;28;20040;-65
2022/05/24 09:30:41;;;;;;;7.90;3.65;;;;;;;21.23;56.31;98087.59;5093358;28;19920;-66
2022/05/24 09:33:30;;;;;;;7.50;3.03;;;;;;;20.83;57.32;98096.78;5078014;28;20044;-66
2022/05/24 09:36:32;;;;;;;5.88;3.13;;;;;;;21.51;55.12;98092.94;5093134;28;20040;-65
2022/05/24 09:39:30;;;;;;;5.28;2.83;;;;;;;21.64;54.96;98088.75;5109194;28;20046;-64
2022/05/24 09:42:27;;;;;;;6.88;3.03;;;;;;;21.31;55.29;98095.44;5111823;28;20092;-67
2022/05/24 09:45:17;;;;;;;8.23;3.47;;;;;;;21.33;55.23;98109.38;5091567;28;20104;-65
2022/05/24 09:48:03;;;;;;;5.53;3.20;;;;;;;21.50;54.96;98109.94;5077204;28;20051;-65
2022/05/24 09:50:52;;;;;;;7.03;3.15;;;;;;;21.46;55.56;98103.34;5077102;28;20127;-63
2022/05/24 09:53:51;;;;;;;4.65;2.97;;;;;;;21.88;54.29;98102.66;5094975;28;20063;-62
2022/05/24 09:56:36;;;;;;;6.43;3.08;;;;;;;22.25;53.37;98105.13;5091711;28;20048;-62
2022/05/24 09:59:26;;;;;;;4.60;2.50;;;;;;;22.42;53.25;98102.13;5091955;28;20097;-62
2022/05/24 10:02:29;;;;;;;5.05;3.40;;;;;;;21.74;53.52;98102.53;5091597;28;20138;-60
2022/05/24 10:05:20;;;;;;;5.35;2.78;;;;;;;22.50;52.14;98100.13;5094379;28;20468;-61
2022/05/24 10:08:13;;;;;;;4.90;3.20;;;;;;;22.93;51.69;98092.06;5096505;28;20044;-60
2022/05/24 10:10:58;;;;;;;7.78;2.97;;;;;;;22.96;50.74;98105.84;5094377;28;20039;-60
2022/05/24 10:13:55;;;;;;;5.65;2.97;;;;;;;22.11;52.84;98107.72;5112807;28;20043;-62
2022/05/24 10:17:06;;;;;;;3.92;3.22;;;;;;;21.63;54.63;98105.72;5115987;28;20048;-62
2022/05/24 10:19:59;;;;;;;5.65;3.17;;;;;;;22.60;52.25;98099.78;5117796;28;20062;-62
2022/05/24 10:23:06;;;;;;;5.85;3.13;;;;;;;22.09;53.70;98120.44;5116918;28;20050;-60
2022/05/24 10:26:17;;;;;;;5.60;3.10;;;;;;;21.75;54.44;98100.69;5111801;28;20043;-61
2022/05/24 10:29:19;;;;;;;4.28;3.10;;;;;;;22.02;53.46;98116.88;5112937;28;20491;-60
2022/05/24 10:38:17;;;;;;;7.05;3.63;;;;;;;22.84;52.17;98105.59;5112630;28;20031;-60
2022/05/24 10:39:00;;;;;;;5.32;3.10;;;;;;;23.01;50.90;98106.03;5116310;28;20270;-60
2022/05/24 10:42:29;;;;;;;5.70;2.78;;;;;;;23.33;50.39;98101.97;5116659;28;20089;-61
2022/05/24 10:45:20;;;;;;;3.80;2.80;;;;;;;23.65;49.87;98104.06;5107528;28;20051;-59
2022/05/24 10:48:08;;;;;;;5.07;2.70;;;;;;;22.56;52.16;98105.66;5116254;28;20036;-61
2022/05/24 10:50:58;;;;;;;4.63;3.08;;;;;;;23.17;50.42;98100.50;5115035;28;20071;-61
2022/05/24 10:53:56;;;;;;;3.05;2.38;;;;;;;24.59;46.97;98106.53;5116510;28;20036;-59
2022/05/24 10:57:07;;;;;;;5.65;2.78;;;;;;;25.00;46.22;98114.38;5095835;28;20036;-61
2022/05/24 11:00:05;;;;;;;4.80;2.90;;;;;;;23.85;47.32;98112.03;5074791;28;20063;-61
2022/05/24 11:03:02;;;;;;;5.82;2.72;;;;;;;23.50;48.96;98107.78;5095404;28;20040;-61
2022/05/24 11:05:58;;;;;;;4.28;2.85;;;;;;;24.07;48.33;98104.59;5096359;28;20471;-66
2022/05/24 11:09:00;;;;;;;4.07;3.05;;;;;;;23.19;49.28;98109.94;5095626;28;20047;-51
2022/05/24 11:12:06;;;;;;;4.68;2.58;;;;;;;22.54;51.99;98113.88;5087943;28;20040;-61
2022/05/24 11:15:00;;;;;;;4.18;2.80;;;;;;;21.61;54.72;98102.44;5123406;27;20043;-61
2022/05/24 11:17:46;;;;;;;7.93;3.25;;;;;;;22.99;52.08;98093.91;5122266;27;20032;-67
2022/05/24 11:20:39;;;;;;;4.78;3.15;;;;;;;24.11;48.48;98083.59;5123112;27;20153;-62
2022/05/24 11:23:41;;;;;;;4.25;3.08;;;;;;;24.36;47.91;98088.28;5094936;28;20074;-61
2022/05/24 11:26:30;;;;;;;6.38;3.95;;;;;;;24.00;48.70;98087.75;5097888;28;20779;-60
2022/05/24 11:29:26;;;;;;;7.47;2.97;;;;;;;24.52;47.97;98084.31;5095753;28;20051;-61
2022/05/24 11:32:11;;;;;;;6.38;2.80;;;;;;;24.11;48.09;98081.75;5123495;27;20040;-61
2022/05/24 11:35:08;;;;;;;6.38;2.92;;;;;;;23.47;50.26;98073.44;5095430;28;20048;-61
2022/05/24 11:37:56;;;;;;;5.88;3.55;;;;;;;23.73;49.21;98075.25;5121957;27;20036;-62
2022/05/24 11:40:51;;;;;;;7.50;3.40;;;;;;;24.09;49.25;98075.78;5093786;28;20102;-61
2022/05/24 11:43:35;;;;;;;9.00;3.15;;;;;;;23.71;49.38;98084.50;5094465;28;20130;-61
2022/05/24 11:46:33;;;;;;;4.13;3.00;;;;;;;24.43;47.93;98075.69;5094389;28;20055;-60
2022/05/24 11:49:21;;;;;;;5.28;3.33;;;;;;;23.73;49.61;98085.13;5094688;28;20055;-60
2022/05/24 11:52:40;;;;;;;4.75;3.47;;;;;;;23.20;50.80;98089.41;5094562;28;20040;-60
2022/05/24 11:55:41;;;;;;;5.38;3.08;;;;;;;23.89;49.53;98075.03;5105707;28;20040;-60
2022/05/24 11:58:29;;;;;;;5.10;2.75;;;;;;;23.43;50.70;98070.34;5113889;28;20524;-59
2022/05/24 12:01:23;;;;;;;3.90;2.72;;;;;;;23.10;52.57;98060.44;5114590;28;20040;-62
2022/05/24 12:07:54;;;;;;;7.75;3.03;;;;;;;22.46;53.89;98066.84;5114634;28;20176;-60
2022/05/24 12:10:46;;;;;;;5.63;3.05;;;;;;;23.80;50.01;98069.06;5114185;28;20087;-61
2022/05/24 12:13:54;;;;;;;5.80;3.13;;;;;;;24.28;49.07;98067.13;5114225;28;20532;-60
2022/05/24 12:16:42;;;;;;;2.88;2.53;;;;;;;24.06;49.92;98067.34;5114478;28;20039;-60
2022/05/24 12:19:42;;;;;;;4.22;2.53;;;;;;;23.64;50.48;98071.16;5114169;28;20130;-61
2022/05/24 12:22:30;;;;;;;6.75;2.80;;;;;;;23.44;51.37;98065.81;5113292;28;20055;-62
2022/05/24 12:25:54;;;;;;;7.55;2.80;;;;;;;23.53;51.59;98071.78;5114247;28;20173;-64
2022/05/24 12:28:38;;;;;;;3.60;2.80;;;;;;;23.35;50.49;98076.69;5114401;28;20055;-61
2022/05/24 12:31:26;;;;;;;4.60;3.60;;;;;;;23.26;50.53;98072.56;5114556;28;20043;-61
2022/05/24 12:34:14;;;;;;;6.40;3.00;;;;;;;23.08;50.66;98079.34;5113982;28;20057;-60
2022/05/24 12:37:04;;;;;;;3.85;3.15;;;;;;;22.80;50.84;98082.19;5098767;28;20046;-60
2022/05/24 12:40:29;;;;;;;6.20;3.20;;;;;;;22.55;52.02;98088.00;5112851;28;20088;-61
2022/05/24 12:43:16;;;;;;;4.88;3.45;;;;;;;23.18;50.41;98076.28;5050735;28;20037;-61
2022/05/24 12:46:02;;;;;;;4.97;3.13;;;;;;;23.54;48.87;98076.09;5036927;28;20491;-60
2022/05/24 12:48:48;;;;;;;4.40;3.05;;;;;;;23.21;49.80;98078.53;5103088;28;20089;-61
2022/05/24 12:51:33;;;;;;;7.70;3.60;;;;;;;22.60;51.49;98083.78;5072859;28;20052;-61
2022/05/24 12:54:30;;;;;;;4.50;3.20;;;;;;;22.39;52.77;98080.16;5072482;28;20040;-62
2022/05/24 12:57:37;;;;;;;6.28;3.53;;;;;;;21.73;53.85;98084.91;5071939;28;20051;-61
2022/05/24 13:00:24;;;;;;;4.43;3.55;;;;;;;21.88;53.59;98090.16;5072797;28;20050;-60
2022/05/24 13:03:22;;;;;;;8.55;3.47;;;;;;;21.63;54.55;98095.06;5071687;28;20036;-59
2022/05/24 13:06:30;;;;;;;4.32;3.55;;;;;;;21.37;54.77;98097.34;5057628;28;20074;-62
2022/05/24 13:09:20;;;;;;;6.93;3.25;;;;;;;21.43;54.86;98101.06;5057722;28;20075;-62
2022/05/24 13:12:08;;;;;;;5.72;3.78;;;;;;;21.01;56.80;98088.41;5072582;28;20050;-59
2022/05/24 13:14:59;;;;;;;7.00;3.30;;;;;;;21.21;56.38;98077.13;5072407;28;20479;-60
2022/05/24 13:17:45;;;;;;;;;;;;;;;21.47;55.88;98073.03;5072053;28;20064;-60
2022/05/24 13:20:38;;;;;;;4.78;3.50;;;;;;;21.63;55.09;98073.75;5072683;28;20298;-60
2022/05/24 13:23:35;;;;;;;6.95;3.63;;;;;;;21.05;57.04;98060.38;5072483;28;20075;-60
2022/05/24 13:26:20;;;;;;;7.63;3.60;;;;;;;20.91;57.84;98051.44;5072745;28;20519;-64
2022/05/24 13:29:24;;;;;;;4.10;3.65;;;;;;;21.22;56.73;98059.28;5074861;28;20075;-61
2022/05/24 13:35:16;;;;;;;6.45;3.75;;;;;;;20.81;58.29;98072.19;5071573;28;20092;-60
2022/05/24 13:38:02;;;;;;;5.00;3.35;;;;;;;20.96;57.66;98071.34;5072667;28;20426;-60
2022/05/24 13:40:55;;;;;;;7.70;3.80;;;;;;;20.87;57.72;98073.28;5072390;28;20480;-61
2022/05/24 13:43:44;;;;;;;5.57;3.33;;;;;;;21.23;56.77;98076.94;5072414;28;20051;-60
2022/05/24 13:46:29;;;;;;;13.75;3.55;;;;;;;20.79;57.72;98076.91;5056940;28;20044;-61
2022/05/24 13:49:40;;;;;;;5.70;3.53;;;;;;;20.89;57.55;98079.25;5076839;28;20037;-62
2022/05/24 13:52:29;;;;;;;6.93;3.58;;;;;;;20.98;57.56;98086.13;5111531;28;20044;-61
2022/05/24 13:55:24;;;;;;;8.90;3.80;;;;;;;20.50;59.34;98086.63;5111579;28;20390;-65
2022/05/24 13:58:29;;;;;;;5.47;3.10;;;;;;;20.64;59.09;98076.94;5111550;28;20047;-60
2022/05/24 14:01:29;;;;;;;6.25;3.60;;;;;;;20.85;58.47;98065.50;5113011;28;20494;-62
2022/05/24 14:04:17;;;;;;;4.32;3.45;;;;;;;20.47;59.35;98057.69;5113144;28;20050;-60